Selinsgrove, Pennsylvania
Current Conditions -  °F | °C
As of 6:53 AM on Thursday 23 Oct 2014 (Local Time) from KSEG Reporting Station
Overcast Overcast  
Wind Chill: 11°   Ceiling: 3100
Heat Index: 11°   Visibility: 10mi
Dew Point:   Wind: 8mph
Humidity: 66%   Direction: 320°NW
Pressure: 29.9"   Gusts: NA
Location:  40.8°N, 76.86°W
Report Text: KSEG 231053Z AUTO 32007KT 10SM OVC031 11/05 A2990 RMK AO2 SLP125 T01110050
Loading
Personal Weather Stations






























Interactive Weather Map
Tropical Storm Tracking
New forecast layout! Learn more

10-Day Weather Forecast

Advertisements
Track Severe Weather on mobile